sensor_id;sensor_type;location;lat;lon;timestamp;P1;durP1;ratioP1;P2;durP2;ratioP2
30068;SDS011;16894;49.456;10.644;2022-12-07T00:01:22;34.33;;;21.30;;
30068;SDS011;16894;49.456;10.644;2022-12-07T00:03:54;22.05;;;18.63;;
30068;SDS011;16894;49.456;10.644;2022-12-07T00:06:29;32.90;;;22.80;;
30068;SDS011;16894;49.456;10.644;2022-12-07T00:09:16;27.00;;;22.58;;
30068;SDS011;16894;49.456;10.644;2022-12-07T00:11:42;23.23;;;18.25;;
30068;SDS011;16894;49.456;10.644;2022-12-07T00:16:38;27.33;;;24.75;;
30068;SDS011;16894;49.456;10.644;2022-12-07T00:19:04;22.60;;;19.35;;
30068;SDS011;16894;49.456;10.644;2022-12-07T00:21:33;23.55;;;20.90;;
30068;SDS011;16894;49.456;10.644;2022-12-07T00:24:00;24.80;;;20.77;;
30068;SDS011;16894;49.456;10.644;2022-12-07T00:26:44;23.45;;;20.83;;
30068;SDS011;16894;49.456;10.644;2022-12-07T00:29:17;23.92;;;21.02;;
30068;SDS011;16894;49.456;10.644;2022-12-07T00:31:45;25.80;;;20.15;;
30068;SDS011;16894;49.456;10.644;2022-12-07T00:34:14;22.77;;;18.63;;
30068;SDS011;16894;49.456;10.644;2022-12-07T00:36:44;27.23;;;21.98;;
30068;SDS011;16894;49.456;10.644;2022-12-07T00:39:10;23.02;;;18.67;;
30068;SDS011;16894;49.456;10.644;2022-12-07T00:41:36;21.93;;;18.57;;
30068;SDS011;16894;49.456;10.644;2022-12-07T00:44:02;26.30;;;21.13;;
30068;SDS011;16894;49.456;10.644;2022-12-07T00:46:27;26.13;;;21.47;;
30068;SDS011;16894;49.456;10.644;2022-12-07T00:48:53;22.80;;;18.93;;
30068;SDS011;16894;49.456;10.644;2022-12-07T00:51:20;25.88;;;21.50;;
30068;SDS011;16894;49.456;10.644;2022-12-07T00:53:47;26.58;;;21.65;;
30068;SDS011;16894;49.456;10.644;2022-12-07T00:56:20;25.17;;;19.43;;
30068;SDS011;16894;49.456;10.644;2022-12-07T00:58:51;27.02;;;22.33;;
30068;SDS011;16894;49.456;10.644;2022-12-07T01:01:17;27.92;;;21.23;;
30068;SDS011;16894;49.456;10.644;2022-12-07T01:03:43;24.00;;;20.33;;
30068;SDS011;16894;49.456;10.644;2022-12-07T01:06:08;25.27;;;19.07;;
30068;SDS011;16894;49.456;10.644;2022-12-07T01:08:34;30.60;;;20.93;;
30068;SDS011;16894;49.456;10.644;2022-12-07T01:11:00;25.43;;;20.27;;
30068;SDS011;16894;49.456;10.644;2022-12-07T01:13:31;28.77;;;20.15;;
30068;SDS011;16894;49.456;10.644;2022-12-07T01:15:58;30.75;;;22.88;;
30068;SDS011;16894;49.456;10.644;2022-12-07T01:18:28;25.75;;;21.70;;
30068;SDS011;16894;49.456;10.644;2022-12-07T01:20:59;26.17;;;20.25;;
30068;SDS011;16894;49.456;10.644;2022-12-07T01:23:36;25.98;;;20.98;;
30068;SDS011;16894;49.456;10.644;2022-12-07T01:26:03;27.90;;;21.17;;
30068;SDS011;16894;49.456;10.644;2022-12-07T01:28:31;24.90;;;19.85;;
30068;SDS011;16894;49.456;10.644;2022-12-07T01:33:28;21.92;;;18.38;;
30068;SDS011;16894;49.456;10.644;2022-12-07T01:36:05;28.20;;;21.95;;
30068;SDS011;16894;49.456;10.644;2022-12-07T01:38:32;24.50;;;20.20;;
30068;SDS011;16894;49.456;10.644;2022-12-07T01:40:58;23.10;;;18.93;;
30068;SDS011;16894;49.456;10.644;2022-12-07T01:43:26;21.23;;;18.92;;
30068;SDS011;16894;49.456;10.644;2022-12-07T01:45:53;24.20;;;19.63;;
30068;SDS011;16894;49.456;10.644;2022-12-07T01:48:40;26.10;;;19.85;;
30068;SDS011;16894;49.456;10.644;2022-12-07T01:51:09;24.95;;;20.10;;
30068;SDS011;16894;49.456;10.644;2022-12-07T01:53:38;28.55;;;19.38;;
30068;SDS011;16894;49.456;10.644;2022-12-07T01:56:08;26.42;;;19.88;;
30068;SDS011;16894;49.456;10.644;2022-12-07T01:58:39;26.83;;;20.60;;
30068;SDS011;16894;49.456;10.644;2022-12-07T02:01:04;25.17;;;19.40;;
30068;SDS011;16894;49.456;10.644;2022-12-07T02:03:32;26.73;;;21.90;;
30068;SDS011;16894;49.456;10.644;2022-12-07T02:06:04;26.73;;;20.77;;
30068;SDS011;16894;49.456;10.644;2022-12-07T02:08:31;30.85;;;24.50;;
30068;SDS011;16894;49.456;10.644;2022-12-07T02:13:24;31.88;;;28.63;;
30068;SDS011;16894;49.456;10.644;2022-12-07T02:21:45;31.42;;;24.33;;
30068;SDS011;16894;49.456;10.644;2022-12-07T02:24:47;31.13;;;24.45;;
30068;SDS011;16894;49.456;10.644;2022-12-07T02:27:40;29.85;;;24.17;;
30068;SDS011;16894;49.456;10.644;2022-12-07T02:30:16;40.53;;;31.95;;
30068;SDS011;16894;49.456;10.644;2022-12-07T02:35:39;34.22;;;25.25;;
30068;SDS011;16894;49.456;10.644;2022-12-07T02:41:00;37.45;;;25.05;;
30068;SDS011;16894;49.456;10.644;2022-12-07T02:43:33;35.35;;;27.77;;
30068;SDS011;16894;49.456;10.644;2022-12-07T02:46:14;39.17;;;27.90;;
30068;SDS011;16894;49.456;10.644;2022-12-07T02:48:47;41.03;;;31.17;;
30068;SDS011;16894;49.456;10.644;2022-12-07T02:51:14;37.45;;;29.90;;
30068;SDS011;16894;49.456;10.644;2022-12-07T02:53:43;41.33;;;30.25;;
30068;SDS011;16894;49.456;10.644;2022-12-07T02:56:20;45.25;;;32.30;;
30068;SDS011;16894;49.456;10.644;2022-12-07T02:59:00;37.25;;;31.50;;
30068;SDS011;16894;49.456;10.644;2022-12-07T03:01:33;39.17;;;30.63;;
30068;SDS011;16894;49.456;10.644;2022-12-07T03:04:18;41.47;;;31.92;;
30068;SDS011;16894;49.456;10.644;2022-12-07T03:12:53;41.50;;;33.33;;
30068;SDS011;16894;49.456;10.644;2022-12-07T03:15:44;48.72;;;34.97;;
30068;SDS011;16894;49.456;10.644;2022-12-07T03:18:16;47.25;;;32.65;;
30068;SDS011;16894;49.456;10.644;2022-12-07T03:20:46;51.15;;;36.05;;
30068;SDS011;16894;49.456;10.644;2022-12-07T03:23:16;48.17;;;35.97;;
30068;SDS011;16894;49.456;10.644;2022-12-07T03:25:45;49.22;;;34.50;;
30068;SDS011;16894;49.456;10.644;2022-12-07T03:28:14;45.03;;;32.17;;
30068;SDS011;16894;49.456;10.644;2022-12-07T03:30:53;50.15;;;33.75;;
30068;SDS011;16894;49.456;10.644;2022-12-07T03:33:26;51.45;;;34.72;;
30068;SDS011;16894;49.456;10.644;2022-12-07T03:38:40;44.47;;;34.45;;
30068;SDS011;16894;49.456;10.644;2022-12-07T03:41:16;48.33;;;34.90;;
30068;SDS011;16894;49.456;10.644;2022-12-07T03:43:43;42.15;;;31.27;;
30068;SDS011;16894;49.456;10.644;2022-12-07T03:46:15;46.33;;;32.53;;
30068;SDS011;16894;49.456;10.644;2022-12-07T03:48:49;46.13;;;34.42;;
30068;SDS011;16894;49.456;10.644;2022-12-07T03:51:32;41.83;;;33.78;;
30068;SDS011;16894;49.456;10.644;2022-12-07T03:56:57;49.35;;;36.05;;
30068;SDS011;16894;49.456;10.644;2022-12-07T03:59:24;44.15;;;35.85;;
30068;SDS011;16894;49.456;10.644;2022-12-07T04:01:52;42.83;;;31.63;;
30068;SDS011;16894;49.456;10.644;2022-12-07T04:04:26;42.92;;;31.13;;
30068;SDS011;16894;49.456;10.644;2022-12-07T04:06:58;50.65;;;35.85;;
30068;SDS011;16894;49.456;10.644;2022-12-07T04:09:24;42.17;;;32.40;;
30068;SDS011;16894;49.456;10.644;2022-12-07T04:11:50;44.63;;;34.72;;
30068;SDS011;16894;49.456;10.644;2022-12-07T04:14:16;37.47;;;32.57;;
30068;SDS011;16894;49.456;10.644;2022-12-07T04:16:55;41.83;;;32.15;;
30068;SDS011;16894;49.456;10.644;2022-12-07T04:19:23;45.30;;;34.10;;
30068;SDS011;16894;49.456;10.644;2022-12-07T04:21:50;49.10;;;34.28;;
30068;SDS011;16894;49.456;10.644;2022-12-07T04:24:16;43.83;;;30.67;;
30068;SDS011;16894;49.456;10.644;2022-12-07T04:26:42;46.00;;;35.73;;
30068;SDS011;16894;49.456;10.644;2022-12-07T04:31:34;43.97;;;34.20;;
30068;SDS011;16894;49.456;10.644;2022-12-07T04:34:01;48.30;;;34.83;;
30068;SDS011;16894;49.456;10.644;2022-12-07T04:36:26;47.17;;;36.43;;
30068;SDS011;16894;49.456;10.644;2022-12-07T04:38:53;60.30;;;37.10;;
30068;SDS011;16894;49.456;10.644;2022-12-07T04:41:19;52.55;;;36.63;;
30068;SDS011;16894;49.456;10.644;2022-12-07T04:43:52;58.92;;;38.97;;
30068;SDS011;16894;49.456;10.644;2022-12-07T04:46:19;57.35;;;35.45;;
30068;SDS011;16894;49.456;10.644;2022-12-07T04:48:44;59.13;;;35.37;;
30068;SDS011;16894;49.456;10.644;2022-12-07T04:51:10;54.33;;;37.87;;
30068;SDS011;16894;49.456;10.644;2022-12-07T04:53:35;53.23;;;38.43;;
30068;SDS011;16894;49.456;10.644;2022-12-07T04:56:01;58.50;;;38.23;;
30068;SDS011;16894;49.456;10.644;2022-12-07T04:58:27;46.33;;;37.03;;
30068;SDS011;16894;49.456;10.644;2022-12-07T05:00:55;52.60;;;34.17;;
30068;SDS011;16894;49.456;10.644;2022-12-07T05:03:21;57.05;;;39.20;;
30068;SDS011;16894;49.456;10.644;2022-12-07T05:05:47;55.90;;;35.77;;
30068;SDS011;16894;49.456;10.644;2022-12-07T05:08:12;50.47;;;32.47;;
30068;SDS011;16894;49.456;10.644;2022-12-07T05:10:38;55.33;;;33.47;;
30068;SDS011;16894;49.456;10.644;2022-12-07T05:13:03;54.30;;;35.10;;
30068;SDS011;16894;49.456;10.644;2022-12-07T05:15:29;44.83;;;31.27;;
30068;SDS011;16894;49.456;10.644;2022-12-07T05:17:55;54.00;;;36.90;;
30068;SDS011;16894;49.456;10.644;2022-12-07T05:20:20;43.33;;;29.70;;
30068;SDS011;16894;49.456;10.644;2022-12-07T05:22:46;46.47;;;31.60;;
30068;SDS011;16894;49.456;10.644;2022-12-07T05:25:12;49.53;;;33.47;;
30068;SDS011;16894;49.456;10.644;2022-12-07T05:27:37;49.70;;;34.40;;
30068;SDS011;16894;49.456;10.644;2022-12-07T05:30:04;42.77;;;30.43;;
30068;SDS011;16894;49.456;10.644;2022-12-07T05:32:30;47.25;;;32.70;;
30068;SDS011;16894;49.456;10.644;2022-12-07T05:34:55;46.17;;;31.77;;
30068;SDS011;16894;49.456;10.644;2022-12-07T05:37:21;47.03;;;35.07;;
30068;SDS011;16894;49.456;10.644;2022-12-07T05:39:47;46.33;;;33.60;;
30068;SDS011;16894;49.456;10.644;2022-12-07T05:42:12;38.87;;;26.93;;
30068;SDS011;16894;49.456;10.644;2022-12-07T05:44:39;49.28;;;31.48;;
30068;SDS011;16894;49.456;10.644;2022-12-07T05:47:05;52.30;;;29.95;;
30068;SDS011;16894;49.456;10.644;2022-12-07T05:49:31;51.00;;;33.13;;
30068;SDS011;16894;49.456;10.644;2022-12-07T05:51:56;51.63;;;36.10;;
30068;SDS011;16894;49.456;10.644;2022-12-07T05:54:22;47.23;;;33.93;;
30068;SDS011;16894;49.456;10.644;2022-12-07T05:56:47;49.20;;;33.80;;
30068;SDS011;16894;49.456;10.644;2022-12-07T05:59:13;45.90;;;34.30;;
30068;SDS011;16894;49.456;10.644;2022-12-07T06:04:20;60.97;;;35.92;;
30068;SDS011;16894;49.456;10.644;2022-12-07T06:06:47;50.38;;;32.42;;
30068;SDS011;16894;49.456;10.644;2022-12-07T06:09:13;51.72;;;34.17;;
30068;SDS011;16894;49.456;10.644;2022-12-07T06:11:39;54.35;;;39.92;;
30068;SDS011;16894;49.456;10.644;2022-12-07T06:14:23;50.60;;;34.40;;
30068;SDS011;16894;49.456;10.644;2022-12-07T06:16:49;55.97;;;36.77;;
30068;SDS011;16894;49.456;10.644;2022-12-07T06:19:15;54.13;;;37.72;;
30068;SDS011;16894;49.456;10.644;2022-12-07T06:21:40;42.70;;;28.60;;
30068;SDS011;16894;49.456;10.644;2022-12-07T06:24:06;50.47;;;37.47;;
30068;SDS011;16894;49.456;10.644;2022-12-07T06:26:32;53.08;;;35.42;;
30068;SDS011;16894;49.456;10.644;2022-12-07T06:28:58;47.43;;;32.93;;
30068;SDS011;16894;49.456;10.644;2022-12-07T06:31:24;49.05;;;31.73;;
30068;SDS011;16894;49.456;10.644;2022-12-07T06:33:49;51.87;;;34.30;;
30068;SDS011;16894;49.456;10.644;2022-12-07T06:36:15;64.23;;;41.47;;
30068;SDS011;16894;49.456;10.644;2022-12-07T06:38:40;53.80;;;36.53;;
30068;SDS011;16894;49.456;10.644;2022-12-07T06:41:06;51.87;;;35.00;;
30068;SDS011;16894;49.456;10.644;2022-12-07T06:43:32;57.33;;;34.90;;
30068;SDS011;16894;49.456;10.644;2022-12-07T06:45:58;51.50;;;36.17;;
30068;SDS011;16894;49.456;10.644;2022-12-07T06:48:23;65.28;;;37.78;;
30068;SDS011;16894;49.456;10.644;2022-12-07T06:50:49;57.00;;;36.50;;
30068;SDS011;16894;49.456;10.644;2022-12-07T06:53:15;63.55;;;41.78;;
30068;SDS011;16894;49.456;10.644;2022-12-07T06:55:41;60.50;;;35.53;;
30068;SDS011;16894;49.456;10.644;2022-12-07T06:58:06;61.65;;;37.20;;
30068;SDS011;16894;49.456;10.644;2022-12-07T07:00:32;62.23;;;41.13;;
30068;SDS011;16894;49.456;10.644;2022-12-07T07:02:59;56.42;;;35.47;;
30068;SDS011;16894;49.456;10.644;2022-12-07T07:05:25;54.45;;;37.60;;
30068;SDS011;16894;49.456;10.644;2022-12-07T07:07:51;58.03;;;33.77;;
30068;SDS011;16894;49.456;10.644;2022-12-07T07:10:17;64.13;;;35.87;;
30068;SDS011;16894;49.456;10.644;2022-12-07T07:12:42;62.13;;;37.10;;
30068;SDS011;16894;49.456;10.644;2022-12-07T07:15:08;56.43;;;35.53;;
30068;SDS011;16894;49.456;10.644;2022-12-07T07:17:34;54.28;;;33.03;;
30068;SDS011;16894;49.456;10.644;2022-12-07T07:20:00;58.90;;;34.83;;
30068;SDS011;16894;49.456;10.644;2022-12-07T07:22:26;54.67;;;34.73;;
30068;SDS011;16894;49.456;10.644;2022-12-07T07:24:51;61.20;;;34.70;;
30068;SDS011;16894;49.456;10.644;2022-12-07T07:27:17;58.93;;;34.37;;
30068;SDS011;16894;49.456;10.644;2022-12-07T07:29:45;59.83;;;35.37;;
30068;SDS011;16894;49.456;10.644;2022-12-07T07:32:11;52.97;;;33.45;;
30068;SDS011;16894;49.456;10.644;2022-12-07T07:37:04;53.03;;;31.60;;
30068;SDS011;16894;49.456;10.644;2022-12-07T07:39:29;47.43;;;30.97;;
30068;SDS011;16894;49.456;10.644;2022-12-07T07:41:55;47.20;;;30.30;;
30068;SDS011;16894;49.456;10.644;2022-12-07T07:44:23;50.50;;;27.15;;
30068;SDS011;16894;49.456;10.644;2022-12-07T07:46:50;44.50;;;26.00;;
30068;SDS011;16894;49.456;10.644;2022-12-07T07:49:15;44.40;;;26.27;;
30068;SDS011;16894;49.456;10.644;2022-12-07T07:51:41;42.13;;;23.13;;
30068;SDS011;16894;49.456;10.644;2022-12-07T07:54:06;37.47;;;22.93;;
30068;SDS011;16894;49.456;10.644;2022-12-07T07:56:32;41.17;;;23.90;;
30068;SDS011;16894;49.456;10.644;2022-12-07T07:58:58;36.07;;;24.17;;
30068;SDS011;16894;49.456;10.644;2022-12-07T08:01:23;44.53;;;25.43;;
30068;SDS011;16894;49.456;10.644;2022-12-07T08:03:49;34.70;;;21.10;;
30068;SDS011;16894;49.456;10.644;2022-12-07T08:06:15;36.10;;;23.25;;
30068;SDS011;16894;49.456;10.644;2022-12-07T08:08:41;34.10;;;20.70;;
30068;SDS011;16894;49.456;10.644;2022-12-07T08:11:07;32.40;;;21.48;;
30068;SDS011;16894;49.456;10.644;2022-12-07T08:13:34;34.10;;;19.63;;
30068;SDS011;16894;49.456;10.644;2022-12-07T08:16:03;29.83;;;17.77;;
30068;SDS011;16894;49.456;10.644;2022-12-07T08:18:30;30.67;;;16.83;;
30068;SDS011;16894;49.456;10.644;2022-12-07T08:20:59;26.63;;;16.05;;
30068;SDS011;16894;49.456;10.644;2022-12-07T08:23:28;31.83;;;16.38;;
30068;SDS011;16894;49.456;10.644;2022-12-07T08:25:59;28.98;;;15.48;;
30068;SDS011;16894;49.456;10.644;2022-12-07T08:28:27;23.27;;;13.57;;
30068;SDS011;16894;49.456;10.644;2022-12-07T08:30:58;28.80;;;16.42;;
30068;SDS011;16894;49.456;10.644;2022-12-07T08:33:31;27.40;;;14.23;;
30068;SDS011;16894;49.456;10.644;2022-12-07T08:36:04;24.38;;;13.82;;
30068;SDS011;16894;49.456;10.644;2022-12-07T08:38:31;24.38;;;14.20;;
30068;SDS011;16894;49.456;10.644;2022-12-07T08:40:57;25.67;;;13.13;;
30068;SDS011;16894;49.456;10.644;2022-12-07T08:43:24;23.42;;;13.00;;
30068;SDS011;16894;49.456;10.644;2022-12-07T08:45:51;19.25;;;11.75;;
30068;SDS011;16894;49.456;10.644;2022-12-07T08:48:28;18.25;;;10.98;;
30068;SDS011;16894;49.456;10.644;2022-12-07T08:50:55;18.92;;;11.10;;
30068;SDS011;16894;49.456;10.644;2022-12-07T08:53:22;18.52;;;11.30;;
30068;SDS011;16894;49.456;10.644;2022-12-07T08:55:47;22.20;;;12.68;;
30068;SDS011;16894;49.456;10.644;2022-12-07T08:58:14;20.23;;;11.90;;
30068;SDS011;16894;49.456;10.644;2022-12-07T09:00:39;21.30;;;13.02;;
30068;SDS011;16894;49.456;10.644;2022-12-07T09:03:05;20.53;;;11.53;;
30068;SDS011;16894;49.456;10.644;2022-12-07T09:05:31;25.37;;;13.30;;
30068;SDS011;16894;49.456;10.644;2022-12-07T09:07:59;23.92;;;13.23;;
30068;SDS011;16894;49.456;10.644;2022-12-07T09:10:29;22.10;;;13.48;;
30068;SDS011;16894;49.456;10.644;2022-12-07T09:12:55;23.13;;;14.07;;
30068;SDS011;16894;49.456;10.644;2022-12-07T09:15:21;21.70;;;13.98;;
30068;SDS011;16894;49.456;10.644;2022-12-07T09:17:46;23.77;;;14.03;;
30068;SDS011;16894;49.456;10.644;2022-12-07T09:20:12;27.80;;;13.93;;
30068;SDS011;16894;49.456;10.644;2022-12-07T09:22:38;21.53;;;12.80;;
30068;SDS011;16894;49.456;10.644;2022-12-07T09:25:03;25.23;;;13.27;;
30068;SDS011;16894;49.456;10.644;2022-12-07T09:27:29;25.67;;;13.10;;
30068;SDS011;16894;49.456;10.644;2022-12-07T09:29:55;23.70;;;13.83;;
30068;SDS011;16894;49.456;10.644;2022-12-07T09:32:21;26.40;;;13.97;;
30068;SDS011;16894;49.456;10.644;2022-12-07T09:34:47;26.83;;;14.52;;
30068;SDS011;16894;49.456;10.644;2022-12-07T09:37:12;26.20;;;14.70;;
30068;SDS011;16894;49.456;10.644;2022-12-07T09:39:38;22.93;;;13.00;;
30068;SDS011;16894;49.456;10.644;2022-12-07T09:42:05;28.60;;;15.05;;
30068;SDS011;16894;49.456;10.644;2022-12-07T09:44:32;20.67;;;13.63;;
30068;SDS011;16894;49.456;10.644;2022-12-07T09:46:59;22.35;;;13.32;;
30068;SDS011;16894;49.456;10.644;2022-12-07T09:52:55;23.80;;;13.27;;
30068;SDS011;16894;49.456;10.644;2022-12-07T09:54:52;21.02;;;12.70;;
30068;SDS011;16894;49.456;10.644;2022-12-07T09:57:20;19.83;;;12.05;;
30068;SDS011;16894;49.456;10.644;2022-12-07T10:00:00;21.27;;;12.70;;
30068;SDS011;16894;49.456;10.644;2022-12-07T10:02:36;27.00;;;14.57;;
30068;SDS011;16894;49.456;10.644;2022-12-07T10:05:22;22.00;;;13.05;;
30068;SDS011;16894;49.456;10.644;2022-12-07T10:07:52;26.67;;;13.65;;
30068;SDS011;16894;49.456;10.644;2022-12-07T10:10:30;21.23;;;12.80;;
30068;SDS011;16894;49.456;10.644;2022-12-07T10:12:58;22.77;;;12.85;;
30068;SDS011;16894;49.456;10.644;2022-12-07T10:18:17;28.70;;;14.13;;
30068;SDS011;16894;49.456;10.644;2022-12-07T10:20:45;23.02;;;13.63;;
30068;SDS011;16894;49.456;10.644;2022-12-07T10:23:16;24.15;;;13.02;;
30068;SDS011;16894;49.456;10.644;2022-12-07T10:25:43;21.65;;;13.05;;
30068;SDS011;16894;49.456;10.644;2022-12-07T10:28:17;19.05;;;13.40;;
30068;SDS011;16894;49.456;10.644;2022-12-07T10:31:15;21.80;;;12.73;;
30068;SDS011;16894;49.456;10.644;2022-12-07T10:33:57;19.90;;;13.18;;
30068;SDS011;16894;49.456;10.644;2022-12-07T10:36:25;27.73;;;13.80;;
30068;SDS011;16894;49.456;10.644;2022-12-07T10:38:59;23.08;;;12.60;;
30068;SDS011;16894;49.456;10.644;2022-12-07T10:41:25;25.63;;;14.15;;
30068;SDS011;16894;49.456;10.644;2022-12-07T10:43:55;24.25;;;14.05;;
30068;SDS011;16894;49.456;10.644;2022-12-07T10:46:38;22.83;;;13.93;;
30068;SDS011;16894;49.456;10.644;2022-12-07T10:49:44;23.92;;;14.77;;
30068;SDS011;16894;49.456;10.644;2022-12-07T10:58:07;23.63;;;13.70;;
30068;SDS011;16894;49.456;10.644;2022-12-07T11:14:37;26.83;;;14.23;;
30068;SDS011;16894;49.456;10.644;2022-12-07T11:22:56;28.83;;;14.23;;
30068;SDS011;16894;49.456;10.644;2022-12-07T11:25:38;24.23;;;13.55;;
30068;SDS011;16894;49.456;10.644;2022-12-07T11:30:57;21.63;;;13.35;;
30068;SDS011;16894;49.456;10.644;2022-12-07T11:33:53;23.02;;;13.80;;
30068;SDS011;16894;49.456;10.644;2022-12-07T11:36:43;24.02;;;15.07;;
30068;SDS011;16894;49.456;10.644;2022-12-07T11:39:30;21.50;;;13.80;;
30068;SDS011;16894;49.456;10.644;2022-12-07T11:42:05;24.70;;;13.90;;
30068;SDS011;16894;49.456;10.644;2022-12-07T11:44:40;21.88;;;13.15;;
30068;SDS011;16894;49.456;10.644;2022-12-07T11:52:53;23.33;;;13.23;;
30068;SDS011;16894;49.456;10.644;2022-12-07T12:01:02;18.77;;;12.70;;
30068;SDS011;16894;49.456;10.644;2022-12-07T12:03:38;24.23;;;13.00;;
30068;SDS011;16894;49.456;10.644;2022-12-07T12:06:09;20.23;;;12.75;;
30068;SDS011;16894;49.456;10.644;2022-12-07T12:11:39;19.88;;;12.07;;
30068;SDS011;16894;49.456;10.644;2022-12-07T12:14:32;21.10;;;12.95;;
30068;SDS011;16894;49.456;10.644;2022-12-07T12:20:03;22.88;;;13.15;;
30068;SDS011;16894;49.456;10.644;2022-12-07T12:25:47;20.42;;;13.45;;
30068;SDS011;16894;49.456;10.644;2022-12-07T12:28:34;24.80;;;14.57;;
30068;SDS011;16894;49.456;10.644;2022-12-07T12:31:10;23.33;;;14.00;;
30068;SDS011;16894;49.456;10.644;2022-12-07T12:33:42;24.98;;;15.52;;
30068;SDS011;16894;49.456;10.644;2022-12-07T12:36:17;35.17;;;14.60;;
30068;SDS011;16894;49.456;10.644;2022-12-07T12:44:46;25.70;;;15.82;;
30068;SDS011;16894;49.456;10.644;2022-12-07T12:49:33;25.58;;;14.43;;
30068;SDS011;16894;49.456;10.644;2022-12-07T12:54:38;23.48;;;15.70;;
30068;SDS011;16894;49.456;10.644;2022-12-07T13:18:56;22.00;;;12.30;;
30068;SDS011;16894;49.456;10.644;2022-12-07T13:31:39;21.70;;;13.30;;
30068;SDS011;16894;49.456;10.644;2022-12-07T13:40:19;28.30;;;15.00;;
30068;SDS011;16894;49.456;10.644;2022-12-07T13:43:11;21.00;;;13.40;;
30068;SDS011;16894;49.456;10.644;2022-12-07T13:45:43;25.52;;;14.23;;
30068;SDS011;16894;49.456;10.644;2022-12-07T13:48:35;24.25;;;13.27;;
30068;SDS011;16894;49.456;10.644;2022-12-07T13:53:52;26.27;;;13.93;;
30068;SDS011;16894;49.456;10.644;2022-12-07T13:56:31;19.73;;;12.52;;
30068;SDS011;16894;49.456;10.644;2022-12-07T13:58:59;35.75;;;19.38;;
30068;SDS011;16894;49.456;10.644;2022-12-07T14:01:25;22.08;;;13.40;;
30068;SDS011;16894;49.456;10.644;2022-12-07T14:03:51;35.50;;;19.67;;
30068;SDS011;16894;49.456;10.644;2022-12-07T14:06:23;52.50;;;30.58;;
30068;SDS011;16894;49.456;10.644;2022-12-07T14:09:08;28.35;;;14.05;;
30068;SDS011;16894;49.456;10.644;2022-12-07T14:11:41;24.40;;;13.88;;
30068;SDS011;16894;49.456;10.644;2022-12-07T14:14:10;25.90;;;14.47;;
30068;SDS011;16894;49.456;10.644;2022-12-07T14:16:41;25.60;;;13.73;;
30068;SDS011;16894;49.456;10.644;2022-12-07T14:19:38;30.90;;;16.30;;
30068;SDS011;16894;49.456;10.644;2022-12-07T14:22:18;25.75;;;14.25;;
30068;SDS011;16894;49.456;10.644;2022-12-07T14:25:09;21.05;;;12.13;;
30068;SDS011;16894;49.456;10.644;2022-12-07T14:27:47;32.60;;;13.18;;
30068;SDS011;16894;49.456;10.644;2022-12-07T14:30:25;19.10;;;10.88;;
30068;SDS011;16894;49.456;10.644;2022-12-07T14:33:00;24.08;;;12.57;;
30068;SDS011;16894;49.456;10.644;2022-12-07T14:35:27;25.42;;;12.63;;
30068;SDS011;16894;49.456;10.644;2022-12-07T14:37:53;28.38;;;12.40;;
30068;SDS011;16894;49.456;10.644;2022-12-07T14:40:23;26.58;;;14.98;;
30068;SDS011;16894;49.456;10.644;2022-12-07T14:42:56;26.10;;;15.55;;
30068;SDS011;16894;49.456;10.644;2022-12-07T14:45:26;34.85;;;17.35;;
30068;SDS011;16894;49.456;10.644;2022-12-07T14:47:51;29.07;;;15.50;;
30068;SDS011;16894;49.456;10.644;2022-12-07T14:50:18;30.80;;;16.13;;
30068;SDS011;16894;49.456;10.644;2022-12-07T14:52:46;37.22;;;21.35;;
30068;SDS011;16894;49.456;10.644;2022-12-07T14:55:20;33.17;;;20.80;;
30068;SDS011;16894;49.456;10.644;2022-12-07T14:57:48;29.38;;;18.58;;
30068;SDS011;16894;49.456;10.644;2022-12-07T15:00:14;40.43;;;23.47;;
30068;SDS011;16894;49.456;10.644;2022-12-07T15:02:42;35.83;;;17.65;;
30068;SDS011;16894;49.456;10.644;2022-12-07T15:05:09;39.58;;;17.42;;
30068;SDS011;16894;49.456;10.644;2022-12-07T15:07:35;32.08;;;16.80;;
30068;SDS011;16894;49.456;10.644;2022-12-07T15:10:00;49.03;;;21.27;;
30068;SDS011;16894;49.456;10.644;2022-12-07T15:12:26;25.90;;;14.70;;
30068;SDS011;16894;49.456;10.644;2022-12-07T15:14:52;28.83;;;16.07;;
30068;SDS011;16894;49.456;10.644;2022-12-07T15:17:17;44.67;;;22.57;;
30068;SDS011;16894;49.456;10.644;2022-12-07T15:19:43;31.30;;;17.43;;
30068;SDS011;16894;49.456;10.644;2022-12-07T15:22:08;27.53;;;17.37;;
30068;SDS011;16894;49.456;10.644;2022-12-07T15:24:36;53.95;;;32.35;;
30068;SDS011;16894;49.456;10.644;2022-12-07T15:27:02;26.80;;;16.20;;
30068;SDS011;16894;49.456;10.644;2022-12-07T15:29:28;31.17;;;15.90;;
30068;SDS011;16894;49.456;10.644;2022-12-07T15:34:20;23.92;;;13.65;;
30068;SDS011;16894;49.456;10.644;2022-12-07T15:36:46;28.45;;;16.17;;
30068;SDS011;16894;49.456;10.644;2022-12-07T15:39:12;23.87;;;16.00;;
30068;SDS011;16894;49.456;10.644;2022-12-07T15:41:38;29.10;;;16.83;;
30068;SDS011;16894;49.456;10.644;2022-12-07T15:44:04;34.80;;;17.02;;
30068;SDS011;16894;49.456;10.644;2022-12-07T15:46:48;33.17;;;16.67;;
30068;SDS011;16894;49.456;10.644;2022-12-07T15:49:14;27.37;;;15.73;;
30068;SDS011;16894;49.456;10.644;2022-12-07T15:51:42;26.70;;;17.27;;
30068;SDS011;16894;49.456;10.644;2022-12-07T15:54:41;28.17;;;16.90;;
30068;SDS011;16894;49.456;10.644;2022-12-07T15:57:00;28.30;;;17.33;;
30068;SDS011;16894;49.456;10.644;2022-12-07T15:59:26;33.43;;;17.90;;
30068;SDS011;16894;49.456;10.644;2022-12-07T16:01:53;31.00;;;18.88;;
30068;SDS011;16894;49.456;10.644;2022-12-07T16:04:19;33.80;;;19.42;;
30068;SDS011;16894;49.456;10.644;2022-12-07T16:06:45;38.75;;;20.52;;
30068;SDS011;16894;49.456;10.644;2022-12-07T16:09:10;57.17;;;29.13;;
30068;SDS011;16894;49.456;10.644;2022-12-07T16:11:36;61.63;;;33.53;;
30068;SDS011;16894;49.456;10.644;2022-12-07T16:14:01;46.23;;;29.23;;
30068;SDS011;16894;49.456;10.644;2022-12-07T16:16:27;48.73;;;27.27;;
30068;SDS011;16894;49.456;10.644;2022-12-07T16:18:53;46.10;;;27.40;;
30068;SDS011;16894;49.456;10.644;2022-12-07T16:21:19;44.38;;;27.10;;
30068;SDS011;16894;49.456;10.644;2022-12-07T16:23:45;35.35;;;25.02;;
30068;SDS011;16894;49.456;10.644;2022-12-07T16:26:12;61.38;;;30.27;;
30068;SDS011;16894;49.456;10.644;2022-12-07T16:28:39;41.80;;;25.23;;
30068;SDS011;16894;49.456;10.644;2022-12-07T16:31:06;41.20;;;26.98;;
30068;SDS011;16894;49.456;10.644;2022-12-07T16:33:35;39.70;;;25.63;;
30068;SDS011;16894;49.456;10.644;2022-12-07T16:36:02;42.70;;;25.65;;
30068;SDS011;16894;49.456;10.644;2022-12-07T16:38:29;38.22;;;24.85;;
30068;SDS011;16894;49.456;10.644;2022-12-07T16:40:55;34.50;;;25.57;;
30068;SDS011;16894;49.456;10.644;2022-12-07T16:43:21;38.75;;;25.90;;
30068;SDS011;16894;49.456;10.644;2022-12-07T16:45:47;39.58;;;27.17;;
30068;SDS011;16894;49.456;10.644;2022-12-07T16:48:13;39.30;;;24.48;;
30068;SDS011;16894;49.456;10.644;2022-12-07T16:50:40;38.90;;;26.90;;